• Join FlightAware (Why Join?)
  • Login
  • US Flag 
09:07AM EST


 

Airport Tracker/Info


-or-


 

Live Flight TrackerFlight Track Log ✈ JBU1433 ✈ 23-Aug-2013 ✈ KMCO - TJSJ / SJU

Flight Track Log - Related Links

Times and Time Zones

All times are in EDT time to prevent confusion due to time zone crossing. See the JBU1433 flight status page for this flight to view local times or setup timezone preferences in your user account.

Time Position Orientation Groundspeed Altitude Reporting Facility
EDT Latitude Longitude Course Direction KTS MPH feet Rate Location/Type
12:17AM 28.4167 -81.3167 148° Southeast 144 166 900  Level Orlando TRACON
12:18AM 28.4000 -81.3000 139° Southeast 171 197 2,000 1,800 Climbing Orlando TRACON
12:19AM 28.3500 -81.2500 139° Southeast 260 299 4,000 2,760 Climbing Orlando TRACON
12:20AM 28.3000 -81.1833 130° Southeast 265 305 7,600 3,300 Climbing Orlando TRACON
12:21AM 28.1731 -80.8480 146° Southeast  Level Estimated
12:21AM 28.2500 -81.1167 130° Southeast 285 328 10,600  Level Orlando TRACON
12:22AM 28.1088 -80.7330 149° Southeast  Level Estimated
12:22AM 28.1711 -81.0369 138° Southeast 312 359 12,600  Level Miami Center
12:23AM 28.0444 -80.6183 148° Southeast  Level Estimated
12:23AM 28.1086 -80.9594 132° Southeast 348 400 14,900  Level Miami Center
12:24AM 28.0381 -80.8722 132° Southeast 368 423 17,100 2,100 Climbing Miami Center
12:25AM 27.9553 -80.7706 133° Southeast 387 445 19,200 1,920 Climbing Miami Center
12:26AM 27.8911 -80.6675 125° Southeast 392 451 21,000 1,500 Climbing Miami Center
12:27AM 27.8272 -80.5572 123° Southeast 414 476 22,300 1,500 Climbing Miami Center
12:28AM 27.7633 -80.4425 122° Southeast 427 491 24,000 1,380 Climbing Miami Center
12:29AM 27.6953 -80.3278 124° Southeast 432 497 25,100 1,080 Climbing Miami Center
12:30AM 27.6269 -80.2108 123° Southeast 438 504 26,200 1,140 Climbing Miami Center
12:31AM 27.5586 -80.0894 122° Southeast 448 516 27,400 1,200 Climbing Miami Center
12:32AM 27.4883 -79.9706 124° Southeast 453 521 28,600 1,080 Climbing Miami Center
12:33AM 27.4200 -79.8469 122° Southeast 453 521 29,600 840 Climbing Miami Center
12:34AM 27.3453 -79.7211 124° Southeast 463 533 30,300 1,020 Climbing Miami Center
12:35AM 27.2725 -79.5956 123° Southeast 476 548 31,700 1,320 Climbing Miami Center
12:36AM 27.2075 -79.4864 124° Southeast 471 542 33,000 1,200 Climbing Miami Center
12:37AM 27.1264 -79.3492 124° Southeast 471 542 34,200 1,200 Climbing Miami Center
12:38AM 27.0553 -79.2333 125° Southeast 471 542 35,400 1,140 Climbing Miami Center
12:39AM 26.9842 -79.1108 123° Southeast 471 542 36,500 960 Climbing Miami Center
12:40AM 26.9128 -78.9928 124° Southeast 471 542 37,400 780 Climbing Miami Center
12:41AM 26.8414 -78.8728 124° Southeast 471 542 38,100 660 Climbing Miami Center
12:42AM 26.7700 -78.7506 123° Southeast 471 542 38,800 420 Climbing Miami Center
12:43AM 26.7003 -78.6519 128° Southeast 471 542 39,000 60 Climbing Miami Center
12:44AM 26.6306 -78.5300 123° Southeast 471 542 39,000  Level Miami Center
12:45AM 26.5589 -78.4058 123° Southeast 476 548 39,000  Level Miami Center
12:46AM 26.4869 -78.2842 123° Southeast 471 542 39,000  Level Miami Center
12:47AM 26.4108 -78.1650 125° Southeast 471 542 39,000  Level Miami Center
12:48AM 26.3367 -78.0436 124° Southeast 471 542 39,000  Level Miami Center
12:49AM 26.2622 -77.9269 125° Southeast 471 542 39,000  Level Miami Center
12:50AM 26.1900 -77.8011 123° Southeast 471 542 39,000  Level Miami Center
12:51AM 26.1175 -77.6850 125° Southeast 471 542 39,000  Level Miami Center
12:52AM 26.0431 -77.5664 125° Southeast 471 542 39,000  Level Miami Center
12:53AM 25.9619 -77.4319 124° Southeast 471 542 39,100  Climbing Miami Center
12:54AM 25.8894 -77.3114 124° Southeast 471 542 39,000 -60 Descending Miami Center
12:55AM 25.8144 -77.1958 126° Southeast 471 542 39,000  Level Miami Center
12:56AM 25.7519 -77.0917 124° Southeast 466 536 39,000  Level Miami Center
12:57AM 25.6789 -76.9742 125° Southeast 466 536 39,000  Level Miami Center
12:58AM 25.6036 -76.8564 125° Southeast 466 536 39,000  Level Miami Center
12:59AM 25.5283 -76.7367 125° Southeast 471 542 39,000  Level Miami Center
01:00AM 25.4572 -76.6194 124° Southeast 471 542 39,000  Level Miami Center
01:01AM 25.3817 -76.5022 125° Southeast 471 542 39,000  Level Miami Center
01:02AM 25.3083 -76.3853 125° Southeast 471 542 39,000  Level Miami Center
01:03AM 25.2347 -76.2706 125° Southeast 471 542 39,000  Level Miami Center
01:04AM 25.1631 -76.1561 125° Southeast 471 542 39,000  Level Miami Center
01:05AM 25.0853 -76.0394 126° Southeast 471 542 39,000  Level Miami Center
01:06AM 25.0114 -75.9208 124° Southeast 466 536 39,000  Level Miami Center
01:07AM 24.9353 -75.8092 127° Southeast 468 539 39,000  Level Miami Center
01:08AM 24.8614 -75.6906 124° Southeast 468 539 39,000  Level Miami Center
01:09AM 24.7850 -75.5747 126° Southeast 468 539 39,000  Level Miami Center
01:10AM 24.7108 -75.4611 126° Southeast 473 544 39,000  Level Miami Center
01:11AM 24.6386 -75.3431 124° Southeast 473 544 39,000  Level Miami Center
01:12AM 24.5622 -75.2275 126° Southeast 473 544 39,000  Level Miami Center
01:13AM 24.4836 -75.1097 126° Southeast 473 544 39,000  Level Miami Center
01:14AM 24.4092 -74.9944 125° Southeast 473 544 39,100  Climbing Miami Center
01:15AM 24.3344 -74.8769 125° Southeast 473 544 39,000 -60 Descending Miami Center
01:16AM 24.2575 -74.7619 126° Southeast 468 539 39,000  Level Miami Center
01:17AM 24.1764 -74.6381 126° Southeast 468 539 39,000  Level Miami Center
01:18AM 24.1014 -74.5256 126° Southeast 468 539 39,000  Level Miami Center
01:19AM 24.0244 -74.4086 126° Southeast 473 544 39,000  Level Miami Center
01:20AM 23.9514 -74.2942 125° Southeast 473 544 39,000  Level Miami Center
01:21AM 23.8764 -74.1822 126° Southeast 468 539 39,000  Level Miami Center
01:22AM 23.8011 -74.0681 126° Southeast 468 539 39,000  Level Miami Center
01:23AM 23.7217 -73.9564 128° Southeast 468 539 39,000  Level Miami Center
01:24AM 23.6506 -73.8444 125° Southeast 468 539 39,000  Level Miami Center
01:25AM 23.5772 -73.7397 127° Southeast 457 526 39,000  Level Miami Center
01:26AM 23.5081 -73.6281 124° Southeast 451 519 39,000  Level Miami Center
01:27AM 23.4325 -73.5169 127° Southeast 451 519 39,000  Level Miami Center
01:28AM 23.3569 -73.4081 127° Southeast 451 519 39,100  Climbing Miami Center
01:29AM 23.2792 -73.2969 127° Southeast 457 526 39,000 -60 Descending Miami Center
01:30AM 23.2075 -73.1861 125° Southeast 457 526 39,000  Level Miami Center
01:31AM 23.1319 -73.0797 128° Southeast 452 520 39,000  Level Miami Center
01:32AM 23.0600 -72.9669 125° Southeast 452 520 39,000  Level Miami Center
01:33AM 22.9947 -72.8697 126° Southeast 447 514 39,000  Level Miami Center
01:34AM 22.9189 -72.7592 127° Southeast 447 514 39,000  Level Miami Center
01:35AM 22.8447 -72.6467 126° Southeast 452 520 39,000  Level Miami Center
01:36AM 22.7664 -72.5389 128° Southeast 452 520 39,000  Level Miami Center
01:37AM 22.6944 -72.4289 125° Southeast 452 520 39,000  Level Miami Center
01:38AM 22.6158 -72.3192 128° Southeast 452 520 39,000  Level Miami Center
01:39AM 22.5417 -72.2069 126° Southeast 452 520 39,000  Level Miami Center
01:40AM 22.4653 -72.1042 129° Southeast 447 514 39,100  Climbing Miami Center
01:41AM 22.3908 -71.9903 125° Southeast 447 514 39,000 -60 Descending Miami Center
01:42AM 22.3164 -71.8831 127° Southeast 447 514 39,000  Level Miami Center
01:43AM 22.2417 -71.7761 127° Southeast 447 514 39,000  Level Miami Center
01:44AM 22.1669 -71.6647 126° Southeast 447 514 39,000  Level Miami Center
01:45AM 22.0903 -71.5558 127° Southeast 452 520 39,100  Climbing Miami Center
01:46AM 22.0156 -71.4492 127° Southeast 447 514 39,000 -60 Descending Miami Center
01:47AM 21.9386 -71.3403 127° Southeast 447 514 39,000  Level Miami Center
01:48AM 21.8636 -71.2294 126° Southeast 447 514 39,000  Level Miami Center
01:49AM 21.7889 -71.1233 127° Southeast 447 514 39,000  Level Miami Center
01:50AM 21.7136 -71.0128 126° Southeast 447 514 39,000  Level Miami Center
01:51AM 21.6364 -70.9044 127° Southeast 452 520 39,000  Level Miami Center
01:52AM 21.5572 -70.7944 128° Southeast 457 526 39,100  Climbing Miami Center
01:53AM 21.4711 -70.6781 128° Southeast 457 526 39,100 -60 Level Miami Center
01:54AM 21.3958 -70.5700 127° Southeast 457 526 39,000 -60 Descending Miami Center
01:55AM 21.3164 -70.4647 129° Southeast 457 526 39,000  Level Miami Center
01:56AM 21.2411 -70.3594 127° Southeast 457 526 39,000  Level Miami Center
01:57AM 21.1656 -70.2519 127° Southeast 457 526 39,100  Climbing Miami Center
01:58AM 21.0881 -70.1447 128° Southeast 457 526 39,000 -60 Descending Miami Center
01:59AM 21.0147 -70.0417 127° Southeast 457 526 39,000  Level Miami Center
02:00AM 20.9372 -69.9369 128° Southeast 457 526 39,000  Level Miami Center
02:01AM 20.8617 -69.8344 128° Southeast 452 520 39,000  Level Miami Center
02:02AM 20.7839 -69.7278 128° Southeast 452 520 39,100  Climbing Miami Center
02:03AM 20.7103 -69.6253 128° Southeast 447 514 39,000 -60 Descending Miami Center
02:04AM 20.6367 -69.5208 127° Southeast 447 514 39,000  Level Miami Center
02:05AM 20.5592 -69.4208 130° Southeast 447 514 39,000  Level Miami Center
02:06AM 20.4875 -69.3186 127° Southeast 442 509 39,000  Level Miami Center
02:07AM 20.4139 -69.2189 128° Southeast 442 509 39,000  Level Miami Center
02:08AM 20.3403 -69.1172 128° Southeast 442 509 39,000  Level Miami Center
02:09AM 20.2622 -69.0156 129° Southeast 442 509 39,000  Level Miami Center
02:10AM 20.1883 -68.9117 127° Southeast 442 509 39,000  Level Miami Center
02:11AM 20.1164 -68.8078 126° Southeast 442 509 39,100  Climbing Miami Center
02:12AM 20.0406 -68.7111 130° Southeast 442 509 39,100 -60 Level Miami Center
02:13AM 19.9644 -68.6097 129° Southeast 442 509 39,000 -240 Descending Miami Center
02:14AM 19.8906 -68.5086 128° Southeast 442 509 38,700 -900 Descending Miami Center
02:15AM 19.8186 -68.4075 127° Southeast 437 503 37,300 -1,440 Descending Miami Center
02:16AM 19.7425 -68.3108 130° Southeast 437 503 35,900 -1,500 Descending Miami Center
02:17AM 19.6642 -68.2103 130° Southeast 437 503 34,400 -1,500 Descending Miami Center
02:18AM 19.5942 -68.1072 126° Southeast 437 503 32,900 -1,500 Descending Miami Center
02:19AM 19.5194 -68.0000 126° Southeast 443 510 31,400 -1,500 Descending Miami Center
02:20AM 19.4531 -67.8903 123° Southeast 443 510 30,000 -1,320 Descending Miami Center
02:21AM 19.3783 -67.7833 127° Southeast 448 516 28,800 -1,080 Descending Miami Center
02:22AM 19.3256 -67.6992 124° Southeast 448 516 27,900 -1,140 Descending Miami Center
02:23AM 19.2500 -67.5500 118° Southeast 410 472 26,400 -1,260 Descending San Juan Center
02:24AM 19.1833 -67.4500 125° Southeast 390 449 25,200 -1,200 Descending San Juan Center
02:25AM 19.1333 -67.3500 118° Southeast 380 437 24,000 -1,200 Descending San Juan Center
02:26AM 19.0667 -67.2667 130° Southeast 390 449 22,900 -1,800 Descending San Juan Center
02:27AM 19.0167 -67.1833 122° Southeast 350 403 20,500 -2,100 Descending San Juan Center
02:28AM 18.9500 -67.1000 130° Southeast 350 403 18,700 -2,040 Descending San Juan Center
02:29AM 18.8833 -67.0000 125° Southeast 350 403 16,500 -2,100 Descending San Juan Center
02:30AM 18.8333 -66.9333 128° Southeast 320 368 14,500 -1,740 Descending San Juan Center
02:31AM 18.7833 -66.8500 122° Southeast 350 403 13,100 -1,200 Descending San Juan Center
02:32AM 18.7333 -66.7500 118° Southeast 360 414 12,100 -960 Descending San Juan Center
02:33AM 18.6833 -66.6833 128° Southeast 320 368 11,200 -1,020 Descending San Juan Center
02:34AM 18.6333 -66.6167 128° Southeast 290 334 10,100 -1,380 Descending San Juan Center
02:35AM 18.5833 -66.5333 122° Southeast 280 322 8,500 -1,680 Descending San Juan Center
02:36AM 18.5333 -66.4667 128° Southeast 280 322 6,800 -1,620 Descending San Juan Center
02:37AM 18.5000 -66.4000 118° Southeast 270 311 5,300 -1,440 Descending San Juan Center
02:38AM 18.4500 -66.3333 128° Southeast 260 299 4,000 -900 Descending San Juan Center
02:39AM 18.4167 -66.2833 125° Southeast 250 288 3,500 -240 Descending San Juan Center
02:40AM 18.3833 -66.2333 125° Southeast 200 230 3,600  Climbing San Juan Center
02:41AM 18.3500 -66.1833 125° Southeast 170 196 3,500 -480 Descending San Juan Center
02:42AM 18.3833 -66.1333 55° Northeast 180 207 2,700 -900 Descending San Juan Center
02:43AM 18.4000 -66.0833 71° East 170 196 1,800 -900 Descending San Juan Center
02:44AM 18.4167 -66.0500 62° Northeast 130 150 1,000 -780 Descending San Juan Center
02:45AM 18.4333 -66.0167 62° Northeast 130 150 300 -720 Descending San Juan Center